Lena — V2FR — position and weather

sailwx.info

Track history (hours):
 
Tides and Currents Weather Stations Pressure Air Temp Water Temp Dewpoint Dewpoint Depression Visibility Wind Speed Wind Dir Waves Ship Positions

Lena

Last reported at 2014-Oct-28 13:31 UTC. Time now 2014-Oct-30 17:34 UTC.
Position N 01°15' E 104°07'.

Length 152 m; draft 7.1 m.

Type: Cargo ship. MMSI: 304080808.

Date/timePositionNaut miles runAvg speedWind from/ knotsBaromVisibWave heightAir tempDewpointWater temp
2014-Oct-28 13:31N 01°15' E 104°07'2019.0
2014-Oct-28 12:28N 01°09' E 103°48'11 0.4
2014-Oct-27 08:06N 01°18' E 103°41'4 1.1
2014-Oct-27 04:27N 01°14' E 103°42'7 6.7
2014-Oct-27 03:29N 01°15' E 103°48'0 0.0
2014-Oct-27 02:32N 01°15' E 103°48'0 0.0
2014-Oct-27 01:31N 01°15' E 103°48'0 0.0
2014-Oct-27 00:28N 01°15' E 103°48'0 0.0
2014-Oct-26 23:30N 01°15' E 103°48'0 0.0
2014-Oct-26 22:30N 01°15' E 103°48'0 0.0
2014-Oct-26 21:29N 01°15' E 103°48'0 0.0
2014-Oct-26 20:32N 01°15' E 103°48'0 0.0
2014-Oct-26 19:29N 01°15' E 103°48'0 0.0
2014-Oct-26 18:28N 01°15' E 103°48'0 0.0
2014-Oct-26 17:31N 01°15' E 103°48'0 0.0
2014-Oct-26 16:24N 01°15' E 103°48'0 0.0
2014-Oct-26 15:24N 01°15' E 103°48'0 0.0
2014-Oct-26 14:32N 01°15' E 103°48'0 0.0
2014-Oct-26 13:23N 01°15' E 103°48'0 0.1
2014-Oct-26 12:31N 01°15' E 103°48'0 0.0
2014-Oct-26 11:31N 01°15' E 103°48'0 0.0
2014-Oct-26 10:31N 01°15' E 103°48'0 0.0
2014-Oct-26 09:30N 01°15' E 103°48'0 0.1
2014-Oct-26 08:33N 01°15' E 103°48'0 0.0
2014-Oct-26 06:29N 01°15' E 103°48'0 0.0
2014-Oct-26 05:28N 01°15' E 103°48'0 0.1
2014-Oct-26 04:28N 01°15' E 103°48'0 0.0
2014-Oct-26 03:31N 01°15' E 103°48'0 0.0
2014-Oct-26 02:33N 01°15' E 103°48'0 0.0
2014-Oct-26 01:33N 01°15' E 103°48'0 0.0
2014-Oct-26 00:32N 01°15' E 103°48'0 0.0
2014-Oct-25 23:32N 01°15' E 103°48'0 0.4
2014-Oct-25 22:33N 01°15' E 103°48'3 2.4
2014-Oct-25 21:24N 01°13' E 103°49'0 0.0
2014-Oct-25 20:33N 01°13' E 103°49'5 5.2
2014-Oct-25 19:33N 01°15' E 103°44'  
Track history (hours):
 
Tides and Currents Weather Stations Pressure Air Temp Water Temp Dewpoint Dewpoint Depression Visibility Wind Speed Wind Dir Waves Ship Positions

Lena

Last reported at 2014-Oct-28 13:31 UTC. Time now 2014-Oct-30 17:34 UTC.
Position N 01°15' E 104°07'.

Length 152 m; draft 7.1 m.

Type: Cargo ship. MMSI: 304080808.

Date/timePositionNaut miles runAvg speedWind from/ knotsBaromVisibWave heightAir tempDewpointWater temp
2014-Oct-28 13:31N 01°15' E 104°07'2019.0
2014-Oct-28 12:28N 01°09' E 103°48'11 0.4
2014-Oct-27 08:06N 01°18' E 103°41'4 1.1
2014-Oct-27 04:27N 01°14' E 103°42'7 6.7
2014-Oct-27 03:29N 01°15' E 103°48'0 0.0
2014-Oct-27 02:32N 01°15' E 103°48'0 0.0
2014-Oct-27 01:31N 01°15' E 103°48'0 0.0
2014-Oct-27 00:28N 01°15' E 103°48'0 0.0
2014-Oct-26 23:30N 01°15' E 103°48'0 0.0
2014-Oct-26 22:30N 01°15' E 103°48'0 0.0
2014-Oct-26 21:29N 01°15' E 103°48'0 0.0
2014-Oct-26 20:32N 01°15' E 103°48'0 0.0
2014-Oct-26 19:29N 01°15' E 103°48'0 0.0
2014-Oct-26 18:28N 01°15' E 103°48'0 0.0
2014-Oct-26 17:31N 01°15' E 103°48'0 0.0
2014-Oct-26 16:24N 01°15' E 103°48'0 0.0
2014-Oct-26 15:24N 01°15' E 103°48'0 0.0
2014-Oct-26 14:32N 01°15' E 103°48'0 0.0
2014-Oct-26 13:23N 01°15' E 103°48'0 0.1
2014-Oct-26 12:31N 01°15' E 103°48'0 0.0
2014-Oct-26 11:31N 01°15' E 103°48'0 0.0
2014-Oct-26 10:31N 01°15' E 103°48'0 0.0
2014-Oct-26 09:30N 01°15' E 103°48'0 0.1
2014-Oct-26 08:33N 01°15' E 103°48'0 0.0
2014-Oct-26 06:29N 01°15' E 103°48'0 0.0
2014-Oct-26 05:28N 01°15' E 103°48'0 0.1
2014-Oct-26 04:28N 01°15' E 103°48'0 0.0
2014-Oct-26 03:31N 01°15' E 103°48'0 0.0
2014-Oct-26 02:33N 01°15' E 103°48'0 0.0
2014-Oct-26 01:33N 01°15' E 103°48'0 0.0
2014-Oct-26 00:32N 01°15' E 103°48'0 0.0
2014-Oct-25 23:32N 01°15' E 103°48'0 0.4
2014-Oct-25 22:33N 01°15' E 103°48'3 2.4
2014-Oct-25 21:24N 01°13' E 103°49'0 0.0
2014-Oct-25 20:33N 01°13' E 103°49'5 5.2
2014-Oct-25 19:33N 01°15' E 103°44'  

Dump ship's entire track history